createdAt,value
2022-07-25T00:02:17.302Z,8.38
2022-07-25T00:04:42.402Z,8.50
2022-07-25T00:07:06.677Z,8.10
2022-07-25T00:09:30.801Z,8.60
2022-07-25T00:11:55.852Z,8.13
2022-07-25T00:14:19.439Z,8.80
2022-07-25T00:16:43.205Z,8.15
2022-07-25T00:19:07.845Z,8.82
2022-07-25T00:21:31.536Z,8.98
2022-07-25T00:23:55.315Z,8.80
2022-07-25T00:26:18.992Z,8.85
2022-07-25T00:28:45.388Z,8.45
2022-07-25T00:31:09.094Z,9.02
2022-07-25T00:33:33.160Z,8.65
2022-07-25T00:35:56.849Z,8.73
2022-07-25T00:38:20.441Z,8.55
2022-07-25T00:40:46.240Z,8.68
2022-07-25T00:43:18.139Z,8.38
2022-07-25T00:45:43.074Z,9.00
2022-07-25T00:48:08.310Z,8.88
2022-07-25T00:50:32.678Z,8.07
2022-07-25T00:52:57.214Z,8.80
2022-07-25T00:55:23.066Z,9.27
2022-07-25T00:57:47.146Z,8.70
2022-07-25T01:00:15.702Z,8.82
2022-07-25T01:02:41.236Z,8.65
2022-07-25T01:05:05.333Z,8.45
2022-07-25T01:07:29.351Z,8.73
2022-07-25T01:09:53.328Z,8.57
2022-07-25T01:12:16.928Z,8.10
2022-07-25T01:14:40.725Z,8.38
2022-07-25T01:17:04.350Z,8.68
2022-07-25T01:19:29.704Z,8.40
2022-07-25T01:21:55.965Z,8.80
2022-07-25T01:24:19.573Z,9.02
2022-07-25T01:26:43.437Z,8.90
2022-07-25T01:29:07.427Z,8.57
2022-07-25T01:31:31.099Z,8.88
2022-07-25T01:33:54.763Z,8.48
2022-07-25T01:36:19.081Z,9.20
2022-07-25T01:38:44.292Z,8.85
2022-07-25T01:41:08.318Z,9.75
2022-07-25T01:43:32.065Z,9.13
2022-07-25T01:45:56.087Z,9.63
2022-07-25T01:48:19.872Z,8.98
2022-07-25T01:50:43.705Z,9.15
2022-07-25T01:53:07.361Z,8.85
2022-07-25T01:55:32.539Z,8.77
2022-07-25T01:57:56.346Z,9.32
2022-07-25T02:00:20.302Z,9.45
2022-07-25T02:02:45.279Z,9.45
2022-07-25T02:05:10.362Z,9.25
2022-07-25T02:07:34.001Z,9.60
2022-07-25T02:09:57.594Z,9.52
2022-07-25T02:12:22.993Z,9.48
2022-07-25T02:14:46.832Z,9.15
2022-07-25T02:17:10.634Z,9.40
2022-07-25T02:19:34.499Z,8.88
2022-07-25T02:21:58.167Z,9.00
2022-07-25T02:24:21.829Z,8.60
2022-07-25T02:26:45.413Z,9.00
2022-07-25T02:29:10.506Z,8.95
2022-07-25T02:31:34.191Z,9.07
2022-07-25T02:33:57.815Z,8.38
2022-07-25T02:36:21.491Z,8.98
2022-07-25T02:38:45.495Z,9.23
2022-07-25T02:41:09.525Z,8.85
2022-07-25T02:43:33.236Z,8.90
2022-07-25T02:45:58.369Z,8.43
2022-07-25T02:48:22.052Z,8.65
2022-07-25T02:50:45.650Z,8.52
2022-07-25T02:53:09.402Z,8.50
2022-07-25T02:55:33.189Z,8.63
2022-07-25T02:57:57.502Z,8.75
2022-07-25T03:00:21.606Z,9.30
2022-07-25T03:02:47.496Z,7.90
2022-07-25T03:05:14.971Z,8.68
2022-07-25T03:07:39.221Z,8.82
2022-07-25T03:10:02.956Z,8.40
2022-07-25T03:12:34.903Z,8.40
2022-07-25T03:14:58.451Z,8.77
2022-07-25T03:17:22.130Z,8.32
2022-07-25T03:19:47.237Z,9.00
2022-07-25T03:22:11.002Z,8.70
2022-07-25T03:24:34.624Z,8.43
2022-07-25T03:26:58.393Z,8.07
2022-07-25T03:29:22.079Z,7.43
2022-07-25T03:31:46.206Z,7.80
2022-07-25T03:34:10.253Z,8.13
2022-07-25T03:36:35.412Z,8.50
2022-07-25T03:38:59.072Z,8.23
2022-07-25T03:41:22.941Z,7.75
2022-07-25T03:43:46.771Z,8.48
2022-07-25T03:46:10.413Z,8.40
2022-07-25T03:48:34.147Z,8.20
2022-07-25T03:50:59.482Z,8.48
2022-07-25T03:53:26.217Z,8.02
2022-07-25T03:55:49.902Z,8.60
2022-07-25T03:58:13.574Z,8.70
2022-07-25T04:00:37.404Z,8.80
2022-07-25T04:03:01.242Z,8.13
2022-07-25T04:05:24.932Z,8.52
2022-07-25T04:07:48.519Z,8.52
2022-07-25T04:10:14.443Z,8.07
2022-07-25T04:12:39.031Z,8.30
2022-07-25T04:15:02.953Z,9.00
2022-07-25T04:17:26.545Z,8.02
2022-07-25T04:19:50.194Z,8.07
2022-07-25T04:22:13.831Z,7.78
2022-07-25T04:24:37.553Z,7.93
2022-07-25T04:27:02.627Z,8.00
2022-07-25T04:29:26.170Z,8.40
2022-07-25T04:31:49.887Z,7.78
2022-07-25T04:34:13.626Z,7.47
2022-07-25T04:36:37.200Z,7.65
2022-07-25T04:39:00.808Z,7.90
2022-07-25T04:41:24.427Z,8.10
2022-07-25T04:43:49.443Z,8.05
2022-07-25T04:46:13.187Z,8.20
2022-07-25T04:48:36.862Z,8.20
2022-07-25T04:51:00.494Z,7.63
2022-07-25T04:53:24.254Z,7.57
2022-07-25T04:55:47.876Z,8.20
2022-07-25T04:58:11.496Z,7.80
2022-07-25T05:00:37.115Z,7.65
2022-07-25T05:03:01.359Z,8.07
2022-07-25T05:05:25.426Z,8.30
2022-07-25T05:07:49.078Z,7.63
2022-07-25T05:10:12.647Z,7.97
2022-07-25T05:12:36.469Z,7.68
2022-07-25T05:15:00.106Z,7.50
2022-07-25T05:17:25.237Z,7.40
2022-07-25T05:19:49.030Z,7.78
2022-07-25T05:22:12.621Z,7.43
2022-07-25T05:24:37.099Z,7.88
2022-07-25T05:27:00.694Z,8.30
2022-07-25T05:29:24.508Z,8.25
2022-07-25T05:31:48.416Z,7.40
2022-07-25T05:34:13.898Z,8.27
2022-07-25T05:36:37.627Z,8.18
2022-07-25T05:39:01.418Z,8.60
2022-07-25T05:41:25.127Z,8.38
2022-07-25T05:43:48.986Z,8.00
2022-07-25T05:46:13.537Z,7.30
2022-07-25T05:48:37.245Z,7.57
2022-07-25T05:51:02.174Z,7.43
2022-07-25T05:53:26.009Z,8.23
2022-07-25T05:55:49.675Z,8.25
2022-07-25T05:58:13.327Z,8.07
2022-07-25T06:00:37.027Z,8.02
2022-07-25T06:03:01.388Z,8.15
2022-07-25T06:05:25.312Z,7.95
2022-07-25T06:07:50.301Z,7.60
2022-07-25T06:10:13.946Z,7.32
2022-07-25T06:12:37.612Z,7.78
2022-07-25T06:15:01.363Z,7.78
2022-07-25T06:17:29.165Z,7.53
2022-07-25T06:19:55.803Z,8.18
2022-07-25T06:22:20.697Z,8.02
2022-07-25T06:24:45.689Z,8.02
2022-07-25T06:27:09.870Z,7.95
2022-07-25T06:29:33.806Z,8.23
2022-07-25T06:31:57.422Z,7.65
2022-07-25T06:34:21.205Z,7.10
2022-07-25T06:36:44.885Z,7.50
2022-07-25T06:39:08.545Z,7.43
2022-07-25T06:41:33.564Z,7.20
2022-07-25T06:43:57.429Z,6.85
2022-07-25T06:46:21.105Z,7.05
2022-07-25T06:48:44.848Z,6.70
2022-07-25T06:51:08.827Z,7.10
2022-07-25T06:53:32.430Z,7.10
2022-07-25T06:55:56.148Z,6.68
2022-07-25T06:58:22.913Z,6.45
2022-07-25T07:00:50.399Z,6.55
2022-07-25T07:03:14.075Z,7.15
2022-07-25T07:05:38.023Z,6.63
2022-07-25T07:08:02.406Z,6.63
2022-07-25T07:10:26.771Z,6.15
2022-07-25T07:12:51.142Z,6.57
2022-07-25T07:15:16.720Z,6.60
2022-07-25T07:17:40.612Z,6.65
2022-07-25T07:20:06.259Z,6.15
2022-07-25T07:22:29.843Z,6.25
2022-07-25T07:24:53.633Z,5.65
2022-07-25T07:27:19.275Z,6.47
2022-07-25T07:29:43.188Z,5.80
2022-07-25T07:32:08.814Z,5.63
2022-07-25T07:34:32.499Z,6.35
2022-07-25T07:36:56.086Z,6.35
2022-07-25T07:39:19.793Z,6.32
2022-07-25T07:41:43.496Z,5.88
2022-07-25T07:44:07.405Z,6.38
2022-07-25T07:46:31.169Z,6.22
2022-07-25T07:48:56.268Z,6.00
2022-07-25T07:51:19.882Z,6.40
2022-07-25T07:54:01.010Z,6.20
2022-07-25T07:56:24.696Z,6.07
2022-07-25T07:58:48.779Z,6.60
2022-07-25T08:01:13.273Z,5.88
2022-07-25T08:03:37.426Z,6.30
2022-07-25T08:06:02.407Z,6.57
2022-07-25T08:08:31.051Z,6.47
2022-07-25T08:10:58.737Z,5.88
2022-07-25T08:13:25.649Z,5.78
2022-07-25T08:15:52.071Z,5.57
2022-07-25T08:18:17.056Z,5.70
2022-07-25T08:20:41.824Z,5.82
2022-07-25T08:23:07.573Z,6.00
2022-07-25T08:25:32.294Z,5.70
2022-07-25T08:27:58.979Z,5.65
2022-07-25T08:30:22.783Z,6.05
2022-07-25T08:32:52.219Z,6.13
2022-07-25T08:35:16.477Z,5.63
2022-07-25T08:37:40.304Z,6.35
2022-07-25T08:40:06.599Z,6.28
2022-07-25T08:42:31.253Z,6.38
2022-07-25T08:45:01.217Z,6.30
2022-07-25T08:47:25.258Z,6.10
2022-07-25T08:49:49.306Z,6.30
2022-07-25T08:52:13.325Z,6.50
2022-07-25T08:54:37.381Z,6.25
2022-07-25T08:57:02.451Z,6.13
2022-07-25T08:59:26.082Z,6.32
2022-07-25T09:01:49.737Z,6.25
2022-07-25T09:04:13.359Z,5.93
2022-07-25T09:06:37.612Z,5.70
2022-07-25T09:09:04.737Z,5.50
2022-07-25T09:11:33.064Z,5.15
2022-07-25T09:14:05.026Z,5.80
2022-07-25T09:16:34.316Z,5.28
2022-07-25T09:19:10.679Z,5.07
2022-07-25T09:21:34.360Z,5.07
2022-07-25T09:24:00.824Z,5.05
2022-07-25T09:26:24.725Z,4.57
2022-07-25T09:28:51.342Z,4.60
2022-07-25T09:31:19.125Z,4.57
2022-07-25T09:33:48.721Z,4.30
2022-07-25T09:36:13.891Z,4.80
2022-07-25T09:38:37.582Z,4.10
2022-07-25T09:41:03.687Z,4.13
2022-07-25T09:43:38.567Z,3.90
2022-07-25T09:46:02.248Z,3.97
2022-07-25T09:48:27.256Z,3.90
2022-07-25T09:50:54.176Z,4.18
2022-07-25T09:53:18.057Z,4.05
2022-07-25T09:55:42.748Z,3.97
2022-07-25T09:58:06.420Z,3.88
2022-07-25T10:00:33.082Z,3.85
2022-07-25T10:03:17.370Z,3.30
2022-07-25T10:05:57.604Z,3.30
2022-07-25T10:08:22.860Z,3.50
2022-07-25T10:10:46.732Z,3.20
2022-07-25T10:13:12.293Z,3.65
2022-07-25T10:15:51.593Z,3.55
2022-07-25T10:18:17.777Z,3.45
2022-07-25T10:20:41.979Z,3.33
2022-07-25T10:23:18.621Z,3.58
2022-07-25T10:25:47.117Z,3.28
2022-07-25T10:28:12.995Z,3.65
2022-07-25T10:30:39.195Z,3.47
2022-07-25T10:33:05.427Z,3.10
2022-07-25T10:35:29.891Z,2.75
2022-07-25T10:37:54.456Z,3.20
2022-07-25T10:40:35.220Z,3.50
2022-07-25T10:43:04.403Z,3.15
2022-07-25T10:45:38.627Z,3.63
2022-07-25T10:48:09.687Z,3.40
2022-07-25T10:50:54.425Z,3.50
2022-07-25T10:53:16.887Z,2.95
2022-07-25T10:55:41.825Z,3.08
2022-07-25T10:58:17.766Z,3.30
2022-07-25T11:00:46.046Z,3.35
2022-07-25T11:03:13.431Z,3.45
2022-07-25T11:05:47.786Z,3.30
2022-07-25T11:08:21.717Z,3.55
2022-07-25T11:10:53.742Z,2.90
2022-07-25T11:13:17.513Z,3.03
2022-07-25T11:15:41.349Z,3.33
2022-07-25T11:18:05.299Z,3.00
2022-07-25T11:20:29.157Z,3.22
2022-07-25T11:22:54.697Z,2.85
2022-07-25T11:25:19.722Z,2.55
2022-07-25T11:27:44.861Z,3.05
2022-07-25T11:30:10.709Z,2.58
2022-07-25T11:32:41.247Z,2.80
2022-07-25T11:35:06.514Z,2.67
2022-07-25T11:37:37.274Z,3.00
2022-07-25T11:40:01.311Z,2.72
2022-07-25T11:42:27.420Z,2.85
2022-07-25T11:44:54.534Z,2.80
2022-07-25T11:47:29.007Z,3.03
2022-07-25T11:49:54.301Z,2.80
2022-07-25T11:52:23.989Z,3.00
2022-07-25T11:54:53.753Z,2.97
2022-07-25T11:57:23.278Z,2.83
2022-07-25T11:59:47.007Z,3.25
2022-07-25T12:02:24.448Z,3.00
2022-07-25T12:04:56.569Z,2.45
2022-07-25T12:07:20.245Z,3.10
2022-07-25T12:09:44.088Z,2.65
2022-07-25T12:12:08.632Z,3.13
2022-07-25T12:14:43.804Z,3.35
2022-07-25T12:17:08.026Z,2.92
2022-07-25T12:19:33.119Z,3.00
2022-07-25T12:22:03.750Z,3.10
2022-07-25T12:24:27.306Z,3.10
2022-07-25T12:26:50.969Z,2.85
2022-07-25T12:29:14.582Z,3.17
2022-07-25T12:31:38.374Z,2.75
2022-07-25T12:34:01.950Z,2.92
2022-07-25T12:36:27.177Z,2.90
2022-07-25T12:38:50.878Z,2.95
2022-07-25T12:41:17.776Z,2.90
2022-07-25T12:43:41.884Z,2.97
2022-07-25T12:46:07.526Z,2.22
2022-07-25T12:48:31.289Z,2.67
2022-07-25T12:50:55.241Z,2.38
2022-07-25T12:53:20.711Z,2.13
2022-07-25T12:55:44.429Z,2.50
2022-07-25T12:58:09.001Z,2.20
2022-07-25T13:00:32.613Z,2.20
2022-07-25T13:02:57.377Z,2.20
2022-07-25T13:05:21.593Z,2.55
2022-07-25T13:07:45.343Z,2.20
2022-07-25T13:10:12.691Z,2.30
2022-07-25T13:12:36.439Z,2.60
2022-07-25T13:15:00.249Z,3.10
2022-07-25T13:17:27.457Z,2.65
2022-07-25T13:19:51.518Z,2.40
2022-07-25T13:22:15.148Z,2.38
2022-07-25T13:24:39.346Z,2.10
2022-07-25T13:27:06.557Z,2.38
2022-07-25T13:29:30.218Z,2.10
2022-07-25T13:31:56.984Z,2.30
2022-07-25T13:34:20.874Z,2.53
2022-07-25T13:36:44.584Z,2.03
2022-07-25T13:39:09.020Z,1.90
2022-07-25T13:41:35.942Z,1.88
2022-07-25T13:44:01.195Z,1.88
2022-07-25T13:46:25.265Z,2.00
2022-07-25T13:48:48.995Z,2.00
2022-07-25T13:51:13.140Z,2.20
2022-07-25T13:53:36.833Z,1.90
2022-07-25T13:56:01.480Z,1.98
2022-07-25T13:58:25.175Z,2.00
2022-07-25T14:00:50.345Z,2.22
2022-07-25T14:03:14.078Z,2.30
2022-07-25T14:05:39.665Z,2.20
2022-07-25T14:08:03.692Z,2.03
2022-07-25T14:10:27.807Z,1.80
2022-07-25T14:12:51.309Z,2.20
2022-07-25T14:15:14.974Z,2.20
2022-07-25T14:17:40.041Z,2.40
2022-07-25T14:20:04.403Z,2.30
2022-07-25T14:22:28.198Z,2.08
2022-07-25T14:24:52.210Z,2.20
2022-07-25T14:27:16.447Z,2.65
2022-07-25T14:29:40.031Z,2.30
2022-07-25T14:32:03.670Z,2.10
2022-07-25T14:34:28.771Z,2.80
2022-07-25T14:36:52.404Z,2.30
2022-07-25T14:39:17.264Z,2.22
2022-07-25T14:41:40.903Z,2.42
2022-07-25T14:44:04.475Z,2.30
2022-07-25T14:46:29.264Z,2.65
2022-07-25T14:48:54.163Z,2.70
2022-07-25T14:51:19.993Z,2.50
2022-07-25T14:53:43.978Z,2.75
2022-07-25T14:56:08.505Z,2.60
2022-07-25T14:58:32.595Z,2.67
2022-07-25T15:00:56.235Z,2.42
2022-07-25T15:03:20.004Z,2.65
2022-07-25T15:05:43.932Z,2.50
2022-07-25T15:08:09.505Z,2.40
2022-07-25T15:10:33.803Z,2.67
2022-07-25T15:13:20.454Z,3.25
2022-07-25T15:15:41.262Z,2.38
2022-07-25T15:18:05.300Z,2.40
2022-07-25T15:20:28.921Z,2.35
2022-07-25T15:22:52.526Z,2.45
2022-07-25T15:25:45.522Z,2.05
2022-07-25T15:28:01.301Z,2.22
2022-07-25T15:30:29.276Z,2.22
2022-07-25T15:32:53.119Z,2.00
2022-07-25T15:35:16.883Z,2.08
2022-07-25T15:37:40.501Z,1.98
2022-07-25T15:40:04.610Z,2.08
2022-07-25T15:42:29.803Z,1.95
2022-07-25T15:45:15.043Z,1.80
2022-07-25T15:47:37.413Z,2.35
2022-07-25T15:50:01.200Z,1.88
2022-07-25T15:52:26.002Z,2.20
2022-07-25T15:54:49.839Z,2.10
2022-07-25T15:57:13.589Z,1.83
2022-07-25T15:59:38.595Z,2.25
2022-07-25T16:02:02.248Z,2.25
2022-07-25T16:04:34.203Z,2.08
2022-07-25T16:06:58.422Z,2.13
2022-07-25T16:09:21.996Z,1.85
2022-07-25T16:11:45.565Z,1.80
2022-07-25T16:14:10.039Z,2.05
2022-07-25T16:16:33.858Z,2.30
2022-07-25T16:18:58.570Z,2.25
2022-07-25T16:21:23.553Z,2.10
2022-07-25T16:23:47.108Z,2.05
2022-07-25T16:26:11.765Z,1.75
2022-07-25T16:28:39.270Z,1.90
2022-07-25T16:31:03.270Z,1.92
2022-07-25T16:33:27.492Z,2.00
2022-07-25T16:35:51.135Z,2.08
2022-07-25T16:38:16.172Z,1.83
2022-07-25T16:40:39.826Z,2.10
2022-07-25T16:43:03.603Z,1.83
2022-07-25T16:45:27.245Z,2.00
2022-07-25T16:47:50.832Z,1.90
2022-07-25T16:50:14.429Z,1.80
2022-07-25T16:52:38.270Z,2.05
2022-07-25T16:55:03.405Z,2.00
2022-07-25T16:57:27.134Z,1.90
2022-07-25T16:59:50.742Z,2.00
2022-07-25T17:02:14.476Z,2.10
2022-07-25T17:04:38.135Z,1.70
2022-07-25T17:07:04.992Z,1.80
2022-07-25T17:09:28.665Z,1.90
2022-07-25T17:11:53.828Z,2.20
2022-07-25T17:14:17.469Z,1.60
2022-07-25T17:16:42.058Z,1.75
2022-07-25T17:19:05.997Z,2.00
2022-07-25T17:21:29.842Z,2.00
2022-07-25T17:23:53.476Z,2.17
2022-07-25T17:26:17.080Z,1.88
2022-07-25T17:28:42.202Z,1.95
2022-07-25T17:31:06.175Z,1.83
2022-07-25T17:33:29.795Z,2.40
2022-07-25T17:35:53.454Z,1.75
2022-07-25T17:38:18.404Z,1.80
2022-07-25T17:40:43.743Z,1.88
2022-07-25T17:43:07.661Z,1.67
2022-07-25T17:45:32.726Z,1.90
2022-07-25T17:47:56.488Z,1.77
2022-07-25T17:50:27.182Z,1.40
2022-07-25T17:52:52.639Z,1.33
2022-07-25T17:55:16.282Z,1.50
2022-07-25T17:57:43.175Z,1.30
2022-07-25T18:00:08.982Z,1.50
2022-07-25T18:02:36.809Z,1.45
2022-07-25T18:05:00.708Z,1.20
2022-07-25T18:07:24.471Z,1.10
2022-07-25T18:09:48.160Z,1.38
2022-07-25T18:12:11.899Z,1.40
2022-07-25T18:14:35.505Z,1.30
2022-07-25T18:16:59.719Z,1.23
2022-07-25T18:19:26.448Z,1.40
2022-07-25T18:21:50.139Z,0.93
2022-07-25T18:24:13.910Z,1.50
2022-07-25T18:26:37.596Z,1.13
2022-07-25T18:29:01.615Z,1.60
2022-07-25T18:31:25.324Z,1.67
2022-07-25T18:33:49.624Z,1.10
2022-07-25T18:36:14.754Z,1.15
2022-07-25T18:38:38.657Z,1.25
2022-07-25T18:41:27.981Z,1.10
2022-07-25T18:43:48.362Z,1.00
2022-07-25T18:46:13.138Z,1.40
2022-07-25T18:48:38.298Z,1.05
2022-07-25T18:51:02.304Z,1.20
2022-07-25T18:53:27.262Z,1.20
2022-07-25T18:55:51.150Z,1.10
2022-07-25T18:58:16.074Z,1.50
2022-07-25T19:00:39.841Z,1.15
2022-07-25T19:03:03.474Z,1.20
2022-07-25T19:05:27.182Z,1.20
2022-07-25T19:07:51.278Z,1.00
2022-07-25T19:10:16.432Z,1.00
2022-07-25T19:12:40.126Z,1.00
2022-07-25T19:15:04.161Z,1.10
2022-07-25T19:17:27.983Z,0.90
2022-07-25T19:19:52.131Z,1.15
2022-07-25T19:22:15.913Z,1.10
2022-07-25T19:24:39.630Z,0.90
2022-07-25T19:27:05.508Z,0.98
2022-07-25T19:29:29.163Z,1.15
2022-07-25T19:31:52.758Z,1.23
2022-07-25T19:34:16.510Z,1.15
2022-07-25T19:36:40.279Z,1.08
2022-07-25T19:39:04.152Z,1.08
2022-07-25T19:41:28.016Z,1.30
2022-07-25T19:43:53.843Z,0.90
2022-07-25T19:46:17.546Z,1.10
2022-07-25T19:48:41.173Z,1.10
2022-07-25T19:51:05.592Z,1.10
2022-07-25T19:53:29.189Z,1.45
2022-07-25T19:55:52.799Z,1.08
2022-07-25T19:58:16.439Z,1.00
2022-07-25T20:00:41.666Z,1.05
2022-07-25T20:03:06.956Z,1.08
2022-07-25T20:05:30.596Z,0.98
2022-07-25T20:07:54.321Z,1.23
2022-07-25T20:10:18.349Z,0.80
2022-07-25T20:12:42.017Z,1.27
2022-07-25T20:15:07.348Z,1.02
2022-07-25T20:17:32.359Z,0.80
2022-07-25T20:19:56.066Z,0.90
2022-07-25T20:22:19.982Z,0.80
2022-07-25T20:24:43.768Z,0.90
2022-07-25T20:27:07.690Z,1.00
2022-07-25T20:29:31.347Z,0.77
2022-07-25T20:31:55.581Z,0.98
2022-07-25T20:34:21.274Z,1.02
2022-07-25T20:36:44.916Z,1.10
2022-07-25T20:39:10.151Z,0.90
2022-07-25T20:41:34.439Z,1.20
2022-07-25T20:43:58.501Z,1.00
2022-07-25T20:46:22.353Z,0.90
2022-07-25T20:48:46.577Z,1.20
2022-07-25T20:51:13.230Z,0.80
2022-07-25T20:53:37.227Z,0.95
2022-07-25T20:56:02.570Z,0.90
2022-07-25T20:58:26.358Z,1.10
2022-07-25T21:00:50.151Z,1.02
2022-07-25T21:03:13.826Z,1.02
2022-07-25T21:05:39.434Z,1.08
2022-07-25T21:08:04.903Z,0.70
2022-07-25T21:10:28.729Z,1.02
2022-07-25T21:12:52.506Z,0.90
2022-07-25T21:15:16.816Z,0.85
2022-07-25T21:17:41.698Z,1.15
2022-07-25T21:20:07.553Z,0.90
2022-07-25T21:22:31.186Z,1.27
2022-07-25T21:24:56.353Z,0.95
2022-07-25T21:27:20.620Z,0.90
2022-07-25T21:29:44.365Z,1.10
2022-07-25T21:32:09.194Z,1.10
2022-07-25T21:34:32.917Z,0.90
2022-07-25T21:36:56.873Z,1.00
2022-07-25T21:39:20.629Z,0.80
2022-07-25T21:41:46.687Z,1.13
2022-07-25T21:44:10.694Z,0.80
2022-07-25T21:46:34.379Z,1.05
2022-07-25T21:49:16.050Z,0.98
2022-07-25T21:51:40.886Z,1.00
2022-07-25T21:54:05.053Z,1.10
2022-07-25T21:56:28.752Z,1.08
2022-07-25T21:58:53.949Z,1.58
2022-07-25T22:01:19.898Z,1.35
2022-07-25T22:03:43.601Z,1.02
2022-07-25T22:06:07.594Z,1.00
2022-07-25T22:08:31.273Z,0.98
2022-07-25T22:10:54.943Z,1.58
2022-07-25T22:13:19.531Z,1.10
2022-07-25T22:15:44.635Z,1.20
2022-07-25T22:18:08.467Z,1.00
2022-07-25T22:20:32.152Z,1.00
2022-07-25T22:22:55.707Z,1.15
2022-07-25T22:25:19.637Z,1.30
2022-07-25T22:27:43.462Z,1.00
2022-07-25T22:30:08.917Z,1.23
2022-07-25T22:32:34.166Z,1.20
2022-07-25T22:34:57.821Z,1.10
2022-07-25T22:37:21.412Z,1.10
2022-07-25T22:39:45.049Z,0.95
2022-07-25T22:42:08.754Z,1.10
2022-07-25T22:44:32.503Z,1.23
2022-07-25T22:46:56.204Z,1.40
2022-07-25T22:49:23.336Z,1.60
2022-07-25T22:51:47.094Z,1.20
2022-07-25T22:54:10.786Z,1.10
2022-07-25T22:56:34.484Z,1.08
2022-07-25T22:58:58.737Z,1.10
2022-07-25T23:01:23.231Z,1.00
2022-07-25T23:03:47.614Z,1.40
2022-07-25T23:06:13.075Z,1.45
2022-07-25T23:08:36.802Z,1.38
2022-07-25T23:11:00.431Z,1.50
2022-07-25T23:13:24.187Z,1.40
2022-07-25T23:15:49.907Z,1.42
2022-07-25T23:18:14.286Z,1.27
2022-07-25T23:20:38.006Z,1.27
2022-07-25T23:23:03.036Z,1.95
2022-07-25T23:25:27.046Z,1.52
2022-07-25T23:27:51.041Z,1.40
2022-07-25T23:30:16.567Z,1.20
2022-07-25T23:32:40.215Z,1.15
2022-07-25T23:35:03.970Z,1.55
2022-07-25T23:37:27.662Z,1.30
2022-07-25T23:39:52.642Z,1.60
2022-07-25T23:42:16.451Z,1.77
2022-07-25T23:44:42.107Z,1.40
2022-07-25T23:47:10.189Z,1.30
2022-07-25T23:49:35.022Z,1.60
2022-07-25T23:51:58.607Z,1.77
2022-07-25T23:54:22.274Z,1.33
2022-07-25T23:56:47.342Z,1.70
2022-07-25T23:59:13.222Z,1.77
